createdAt,value
2023-02-26T00:00:39.818Z,97.98
2023-02-26T00:02:03.582Z,97.87
2023-02-26T00:03:06.569Z,97.76
2023-02-26T00:04:10.478Z,97.84
2023-02-26T00:05:14.136Z,97.95
2023-02-26T00:06:17.538Z,97.78
2023-02-26T00:07:20.401Z,97.81
2023-02-26T00:08:23.245Z,97.80
2023-02-26T00:09:26.741Z,97.75
2023-02-26T00:10:30.375Z,97.79
2023-02-26T00:11:33.618Z,97.76
2023-02-26T00:12:36.949Z,97.64
2023-02-26T00:13:43.006Z,97.61
2023-02-26T00:14:46.330Z,97.69
2023-02-26T00:15:56.247Z,97.58
2023-02-26T00:16:59.158Z,97.71
2023-02-26T00:18:08.471Z,97.68
2023-02-26T00:19:12.400Z,97.70
2023-02-26T00:20:17.019Z,97.57
2023-02-26T00:21:22.216Z,97.66
2023-02-26T00:22:25.466Z,97.52
2023-02-26T00:23:28.538Z,97.59
2023-02-26T00:24:31.505Z,97.57
2023-02-26T00:25:34.350Z,97.57
2023-02-26T00:26:37.254Z,97.62
2023-02-26T00:27:40.748Z,97.56
2023-02-26T00:28:44.638Z,97.55
2023-02-26T00:29:48.216Z,97.64
2023-02-26T00:30:51.484Z,97.39
2023-02-26T00:31:54.770Z,97.31
2023-02-26T00:32:59.033Z,97.24
2023-02-26T00:34:02.208Z,97.24
2023-02-26T00:35:08.097Z,97.43
2023-02-26T00:36:23.759Z,97.21
2023-02-26T00:37:48.765Z,97.09
2023-02-26T00:39:07.733Z,97.07
2023-02-26T00:40:27.039Z,96.97
2023-02-26T00:41:30.633Z,97.04
2023-02-26T00:42:33.897Z,97.07
2023-02-26T00:43:37.068Z,96.94
2023-02-26T00:44:41.308Z,97.06
2023-02-26T00:45:52.911Z,96.91
2023-02-26T00:47:19.616Z,96.97
2023-02-26T00:49:01.796Z,96.68
2023-02-26T00:50:17.089Z,96.74
2023-02-26T00:51:40.672Z,96.75
2023-02-26T00:53:01.805Z,96.46
2023-02-26T00:54:21.729Z,96.42
2023-02-26T00:55:28.459Z,96.46
2023-02-26T00:56:32.107Z,96.39
2023-02-26T00:57:35.937Z,96.27
2023-02-26T00:58:38.834Z,96.06
2023-02-26T00:59:41.686Z,96.24
2023-02-26T01:00:44.553Z,96.30
2023-02-26T01:01:48.749Z,96.28
2023-02-26T01:02:52.095Z,96.36
2023-02-26T01:03:55.851Z,96.36
2023-02-26T01:04:59.263Z,96.23
2023-02-26T01:06:02.383Z,96.30
2023-02-26T01:07:05.472Z,96.34
2023-02-26T01:08:17.694Z,96.28
2023-02-26T01:09:33.969Z,96.20
2023-02-26T01:10:37.719Z,96.09
2023-02-26T01:11:40.983Z,96.11
2023-02-26T01:12:44.275Z,96.00
2023-02-26T01:13:47.581Z,95.99
2023-02-26T01:14:52.301Z,95.96
2023-02-26T01:16:08.073Z,96.08
2023-02-26T01:17:33.937Z,95.95
2023-02-26T01:18:53.137Z,95.95
2023-02-26T01:20:04.328Z,96.05
2023-02-26T01:21:13.507Z,96.10
2023-02-26T01:22:20.085Z,96.13
2023-02-26T01:23:29.910Z,96.13
2023-02-26T01:24:35.861Z,95.95
2023-02-26T01:25:50.605Z,96.08
2023-02-26T01:26:54.650Z,96.06
2023-02-26T01:27:58.224Z,96.02
2023-02-26T01:29:01.390Z,96.09
2023-02-26T01:30:06.832Z,96.01
2023-02-26T01:31:21.314Z,96.00
2023-02-26T01:32:43.370Z,95.93
2023-02-26T01:33:59.014Z,96.10
2023-02-26T01:35:23.619Z,96.19
2023-02-26T01:36:33.965Z,96.11
2023-02-26T01:38:08.689Z,96.16
2023-02-26T01:39:39.652Z,96.02
2023-02-26T01:40:57.724Z,96.05
2023-02-26T01:42:14.252Z,95.89
2023-02-26T01:43:22.539Z,95.97
2023-02-26T01:44:55.754Z,95.94
2023-02-26T01:46:13.567Z,95.84
2023-02-26T01:47:35.075Z,95.79
2023-02-26T01:48:49.260Z,95.81
2023-02-26T01:49:52.383Z,95.75
2023-02-26T01:50:55.242Z,95.80
2023-02-26T01:52:05.440Z,95.82
2023-02-26T01:53:10.105Z,95.86
2023-02-26T01:54:14.551Z,95.73
2023-02-26T01:55:25.421Z,95.68
2023-02-26T01:56:28.347Z,95.52
2023-02-26T01:57:32.253Z,95.46
2023-02-26T01:58:37.624Z,95.44
2023-02-26T01:59:44.435Z,95.47
2023-02-26T02:00:47.296Z,95.33
2023-02-26T02:01:52.754Z,95.26
2023-02-26T02:02:57.362Z,95.27
2023-02-26T02:04:01.203Z,95.19
2023-02-26T02:05:12.174Z,95.22
2023-02-26T02:06:24.783Z,95.18
2023-02-26T02:07:27.910Z,95.18
2023-02-26T02:08:35.545Z,95.17
2023-02-26T02:09:38.985Z,95.17
2023-02-26T02:10:45.947Z,95.01
2023-02-26T02:12:09.129Z,94.99
2023-02-26T02:13:19.325Z,95.06
2023-02-26T02:15:04.942Z,95.01
2023-02-26T02:16:17.086Z,95.01
2023-02-26T02:17:49.216Z,95.04
2023-02-26T02:19:08.337Z,94.99
2023-02-26T02:20:30.516Z,95.00
2023-02-26T02:22:03.544Z,94.78
2023-02-26T02:23:20.269Z,94.79
2023-02-26T02:24:40.137Z,94.71
2023-02-26T02:25:48.624Z,94.73
2023-02-26T02:26:59.625Z,94.80
2023-02-26T02:28:23.981Z,94.92
2023-02-26T02:29:53.457Z,94.84
2023-02-26T02:31:15.259Z,94.75
2023-02-26T02:32:40.816Z,94.75
2023-02-26T02:33:50.988Z,94.86
2023-02-26T02:35:14.266Z,94.81
2023-02-26T02:36:27.416Z,94.73
2023-02-26T02:37:37.839Z,94.81
2023-02-26T02:39:08.205Z,94.78
2023-02-26T02:40:17.001Z,94.76
2023-02-26T02:41:26.829Z,94.66
2023-02-26T02:42:35.714Z,94.63
2023-02-26T02:43:41.964Z,94.60
2023-02-26T02:44:51.808Z,94.64
2023-02-26T02:46:16.301Z,94.71
2023-02-26T02:47:22.270Z,94.46
2023-02-26T02:48:31.829Z,94.48
2023-02-26T02:49:41.182Z,94.55
2023-02-26T02:50:49.770Z,94.60
2023-02-26T02:52:18.498Z,94.68
2023-02-26T02:53:28.215Z,94.58
2023-02-26T02:54:41.808Z,94.65
2023-02-26T02:55:52.347Z,94.57
2023-02-26T02:57:02.087Z,94.55
2023-02-26T02:58:13.907Z,94.59
2023-02-26T02:59:23.766Z,94.62
2023-02-26T03:00:30.761Z,94.49
2023-02-26T03:01:35.987Z,94.59
2023-02-26T03:02:52.715Z,94.55
2023-02-26T03:04:06.452Z,94.61
2023-02-26T03:05:09.809Z,94.56
2023-02-26T03:06:13.576Z,94.62
2023-02-26T03:07:16.868Z,94.49
2023-02-26T03:08:24.140Z,94.57
2023-02-26T03:09:26.970Z,94.61
2023-02-26T03:10:30.472Z,94.65
2023-02-26T03:11:34.146Z,94.76
2023-02-26T03:12:37.408Z,94.65
2023-02-26T03:13:42.010Z,94.74
2023-02-26T03:14:53.651Z,94.74
2023-02-26T03:15:56.736Z,94.75
2023-02-26T03:17:33.627Z,94.68
2023-02-26T03:18:44.225Z,94.45
2023-02-26T03:20:06.265Z,94.62
2023-02-26T03:21:21.970Z,94.71
2023-02-26T03:22:50.437Z,94.65
2023-02-26T03:24:06.651Z,94.65
2023-02-26T03:25:49.580Z,94.54
2023-02-26T03:27:12.284Z,94.51
2023-02-26T03:28:41.143Z,94.62
2023-02-26T03:29:58.458Z,94.51
2023-02-26T03:31:27.446Z,94.50
2023-02-26T03:32:37.964Z,94.58
2023-02-26T03:34:05.963Z,94.40
2023-02-26T03:35:16.002Z,94.22
2023-02-26T03:36:28.561Z,94.42
2023-02-26T03:37:46.438Z,94.47
2023-02-26T03:39:30.982Z,94.47
2023-02-26T03:42:51.638Z,94.45
2023-02-26T03:44:01.592Z,94.51
2023-02-26T03:45:10.530Z,94.71
2023-02-26T03:46:22.576Z,94.60
2023-02-26T03:47:27.041Z,94.57
2023-02-26T03:48:35.155Z,94.63
2023-02-26T03:49:46.774Z,94.55
2023-02-26T03:50:52.490Z,94.53
2023-02-26T03:52:15.104Z,94.43
2023-02-26T03:53:36.824Z,94.40
2023-02-26T03:54:57.830Z,94.49
2023-02-26T03:56:28.742Z,94.60
2023-02-26T03:57:46.755Z,94.50
2023-02-26T03:58:58.046Z,94.66
2023-02-26T04:00:21.505Z,94.49
2023-02-26T04:01:30.216Z,94.54
2023-02-26T04:02:58.574Z,94.52
2023-02-26T04:04:13.143Z,94.45
2023-02-26T04:06:35.442Z,94.39
2023-02-26T04:10:42.397Z,94.50
2023-02-26T04:11:46.405Z,94.63
2023-02-26T04:12:49.359Z,94.60
2023-02-26T04:13:52.339Z,94.55
2023-02-26T04:14:56.823Z,94.64
2023-02-26T04:16:01.068Z,94.66
2023-02-26T04:17:04.555Z,94.65
2023-02-26T04:18:08.614Z,94.62
2023-02-26T04:19:11.893Z,94.66
2023-02-26T04:20:15.115Z,94.74
2023-02-26T04:21:21.913Z,94.66
2023-02-26T04:22:24.897Z,94.67
2023-02-26T04:23:27.774Z,94.72
2023-02-26T04:24:30.987Z,94.68
2023-02-26T04:25:37.155Z,94.70
2023-02-26T04:26:40.346Z,94.69
2023-02-26T04:27:44.044Z,94.71
2023-02-26T04:28:47.618Z,94.75
2023-02-26T04:29:50.457Z,94.66
2023-02-26T04:30:53.595Z,94.81
2023-02-26T04:31:56.850Z,94.87
2023-02-26T04:32:59.837Z,94.85
2023-02-26T04:34:03.095Z,94.71
2023-02-26T04:35:06.055Z,94.69
2023-02-26T04:36:09.459Z,94.74
2023-02-26T04:37:12.646Z,94.70
2023-02-26T04:38:15.667Z,94.78
2023-02-26T04:39:18.588Z,94.75
2023-02-26T04:40:24.140Z,94.79
2023-02-26T04:41:27.106Z,94.85
2023-02-26T04:42:30.396Z,94.85
2023-02-26T04:43:34.085Z,94.93
2023-02-26T04:44:48.017Z,94.87
2023-02-26T04:45:51.166Z,94.86
2023-02-26T04:46:54.900Z,94.82
2023-02-26T04:47:57.825Z,94.85
2023-02-26T04:49:00.740Z,94.92
2023-02-26T04:50:04.625Z,94.80
2023-02-26T04:51:07.591Z,94.91
2023-02-26T04:52:10.523Z,94.81
2023-02-26T04:53:14.122Z,94.88
2023-02-26T04:54:17.067Z,94.87
2023-02-26T04:55:19.976Z,94.91
2023-02-26T04:56:23.278Z,94.91
2023-02-26T04:57:27.495Z,94.87
2023-02-26T04:58:30.734Z,94.96
2023-02-26T04:59:35.387Z,94.99
2023-02-26T05:00:38.296Z,94.88
2023-02-26T05:01:41.205Z,94.82
2023-02-26T05:02:44.347Z,94.87
2023-02-26T05:03:47.271Z,94.69
2023-02-26T05:04:50.980Z,94.86
2023-02-26T05:05:53.930Z,94.97
2023-02-26T05:06:56.872Z,94.81
2023-02-26T05:07:59.866Z,94.85
2023-02-26T05:09:03.653Z,94.84
2023-02-26T05:10:08.341Z,94.87
2023-02-26T05:11:12.098Z,94.86
2023-02-26T05:12:15.021Z,94.90
2023-02-26T05:13:19.219Z,94.96
2023-02-26T05:14:22.660Z,94.82
2023-02-26T05:15:25.568Z,94.92
2023-02-26T05:16:28.916Z,94.92
2023-02-26T05:17:33.748Z,94.87
2023-02-26T05:18:36.843Z,94.84
2023-02-26T05:19:39.856Z,94.91
2023-02-26T05:20:42.759Z,94.59
2023-02-26T05:21:45.652Z,94.88
2023-02-26T05:22:48.638Z,94.83
2023-02-26T05:23:51.526Z,94.77
2023-02-26T05:24:54.498Z,94.81
2023-02-26T05:25:58.752Z,94.74
2023-02-26T05:27:01.773Z,94.74
2023-02-26T05:28:05.620Z,94.79
2023-02-26T05:29:08.546Z,94.80
2023-02-26T05:30:14.774Z,94.82
2023-02-26T05:31:19.595Z,94.73
2023-02-26T05:32:22.656Z,94.72
2023-02-26T05:33:27.071Z,94.48
2023-02-26T05:34:30.160Z,94.23
2023-02-26T05:35:33.024Z,93.99
2023-02-26T05:36:35.872Z,93.89
2023-02-26T05:37:39.172Z,93.74
2023-02-26T05:38:42.045Z,93.63
2023-02-26T05:39:44.867Z,93.48
2023-02-26T05:40:47.746Z,93.56
2023-02-26T05:41:52.041Z,93.53
2023-02-26T05:42:54.952Z,93.61
2023-02-26T05:43:58.293Z,93.61
2023-02-26T05:45:01.196Z,93.33
2023-02-26T05:46:08.041Z,93.30
2023-02-26T05:47:11.046Z,93.27
2023-02-26T05:48:13.929Z,93.34
2023-02-26T05:49:17.133Z,93.27
2023-02-26T05:50:20.121Z,93.13
2023-02-26T05:51:22.976Z,93.16
2023-02-26T05:52:25.880Z,93.16
2023-02-26T05:53:28.879Z,93.06
2023-02-26T05:54:31.733Z,93.01
2023-02-26T05:55:35.275Z,92.97
2023-02-26T05:56:38.212Z,93.03
2023-02-26T05:57:41.091Z,92.99
2023-02-26T05:58:43.965Z,92.88
2023-02-26T05:59:46.824Z,92.82
2023-02-26T06:00:49.647Z,92.50
2023-02-26T06:01:52.529Z,92.59
2023-02-26T06:02:55.458Z,92.66
2023-02-26T06:03:58.332Z,92.54
2023-02-26T06:05:01.178Z,92.56
2023-02-26T06:06:04.217Z,92.54
2023-02-26T06:07:07.041Z,92.53
2023-02-26T06:08:12.257Z,92.45
2023-02-26T06:09:15.229Z,92.45
2023-02-26T06:10:18.329Z,92.40
2023-02-26T06:11:21.222Z,92.34
2023-02-26T06:12:24.104Z,92.21
2023-02-26T06:13:27.007Z,92.16
2023-02-26T06:14:30.280Z,92.13
2023-02-26T06:15:33.429Z,92.14
2023-02-26T06:16:36.287Z,92.15
2023-02-26T06:17:40.793Z,92.06
2023-02-26T06:18:43.895Z,91.87
2023-02-26T06:19:46.743Z,91.85
2023-02-26T06:20:49.655Z,91.88
2023-02-26T06:21:52.656Z,91.78
2023-02-26T06:22:55.545Z,91.62
2023-02-26T06:23:58.516Z,91.63
2023-02-26T06:25:01.383Z,91.33
2023-02-26T06:26:05.334Z,91.32
2023-02-26T06:27:08.228Z,91.11
2023-02-26T06:28:11.621Z,91.18
2023-02-26T06:29:14.498Z,91.16
2023-02-26T06:30:18.636Z,91.21
2023-02-26T06:31:21.533Z,91.21
2023-02-26T06:32:24.448Z,91.11
2023-02-26T06:33:27.560Z,91.29
2023-02-26T06:34:30.447Z,91.32
2023-02-26T06:35:33.293Z,91.30
2023-02-26T06:36:36.246Z,91.27
2023-02-26T06:37:39.130Z,91.38
2023-02-26T06:38:42.382Z,91.48
2023-02-26T06:39:45.290Z,91.41
2023-02-26T06:40:48.593Z,91.46
2023-02-26T06:41:51.534Z,91.36
2023-02-26T06:42:54.859Z,91.51
2023-02-26T06:43:58.080Z,91.40
2023-02-26T06:45:00.976Z,91.46
2023-02-26T06:46:04.564Z,91.36
2023-02-26T06:47:08.085Z,91.23
2023-02-26T06:48:10.949Z,91.19
2023-02-26T06:49:13.845Z,91.34
2023-02-26T06:50:17.052Z,91.29
2023-02-26T06:51:19.924Z,91.33
2023-02-26T06:52:22.851Z,91.24
2023-02-26T06:53:25.855Z,91.26
2023-02-26T06:54:28.754Z,91.20
2023-02-26T06:55:32.643Z,90.99
2023-02-26T06:56:35.490Z,90.83
2023-02-26T06:57:38.360Z,90.84
2023-02-26T06:58:41.189Z,90.73
2023-02-26T06:59:44.080Z,90.73
2023-02-26T07:00:47.541Z,90.83
2023-02-26T07:01:50.888Z,90.64
2023-02-26T07:02:53.820Z,90.66
2023-02-26T07:03:57.527Z,90.72
2023-02-26T07:05:00.508Z,90.85
2023-02-26T07:06:25.625Z,90.85
2023-02-26T07:07:27.555Z,90.90
2023-02-26T07:08:30.366Z,91.03
2023-02-26T07:09:33.231Z,90.93
2023-02-26T07:10:37.551Z,90.66
2023-02-26T07:11:40.465Z,90.64
2023-02-26T07:12:43.531Z,90.65
2023-02-26T07:13:46.375Z,90.77
2023-02-26T07:14:49.552Z,90.87
2023-02-26T07:15:52.560Z,90.93
2023-02-26T07:16:55.455Z,90.90
2023-02-26T07:18:00.221Z,90.84
2023-02-26T07:19:03.126Z,90.71
2023-02-26T07:20:10.186Z,90.71
2023-02-26T07:21:13.126Z,90.86
2023-02-26T07:22:17.410Z,90.78
2023-02-26T07:23:20.313Z,90.85
2023-02-26T07:24:23.719Z,90.76
2023-02-26T07:25:27.023Z,90.80
2023-02-26T07:26:29.890Z,90.76
2023-02-26T07:27:33.845Z,90.89
2023-02-26T07:28:36.809Z,90.72
2023-02-26T07:29:39.746Z,90.57
2023-02-26T07:30:43.059Z,90.56
2023-02-26T07:31:46.109Z,90.40
2023-02-26T07:32:49.119Z,90.43
2023-02-26T07:33:52.312Z,90.47
2023-02-26T07:34:55.447Z,90.46
2023-02-26T07:35:58.404Z,90.36
2023-02-26T07:37:01.285Z,90.55
2023-02-26T07:38:04.227Z,90.43
2023-02-26T07:39:07.122Z,90.42
2023-02-26T07:40:10.746Z,90.40
2023-02-26T07:41:13.675Z,90.19
2023-02-26T07:42:16.710Z,90.30
2023-02-26T07:43:19.599Z,90.42
2023-02-26T07:44:22.447Z,90.37
2023-02-26T07:45:25.394Z,90.31
2023-02-26T07:46:28.687Z,90.24
2023-02-26T07:47:31.765Z,90.20
2023-02-26T07:48:35.258Z,90.17
2023-02-26T07:49:38.586Z,90.24
2023-02-26T07:50:41.441Z,90.16
2023-02-26T07:51:46.071Z,90.12
2023-02-26T07:52:49.346Z,90.13
2023-02-26T07:53:52.305Z,90.14
2023-02-26T07:54:55.353Z,90.01
2023-02-26T07:55:58.242Z,90.08
2023-02-26T07:57:01.366Z,90.03
2023-02-26T07:58:04.427Z,90.01
2023-02-26T07:59:07.436Z,89.96
2023-02-26T08:00:11.200Z,89.88
2023-02-26T08:01:16.681Z,89.99
2023-02-26T08:02:19.592Z,90.07
2023-02-26T08:03:22.504Z,90.17
2023-02-26T08:04:25.513Z,90.10
2023-02-26T08:05:30.157Z,90.29
2023-02-26T08:06:33.332Z,90.03
2023-02-26T08:07:37.675Z,90.06
2023-02-26T08:08:40.577Z,90.05
2023-02-26T08:09:43.501Z,89.91
2023-02-26T08:10:46.332Z,89.97
2023-02-26T08:11:49.210Z,89.85
2023-02-26T08:12:52.079Z,89.87
2023-02-26T08:13:54.983Z,89.94
2023-02-26T08:14:57.833Z,89.77
2023-02-26T08:16:00.748Z,89.77
2023-02-26T08:17:03.828Z,89.48
2023-02-26T08:18:06.724Z,89.41
2023-02-26T08:19:09.613Z,89.60
2023-02-26T08:20:14.420Z,89.71
2023-02-26T08:21:17.337Z,89.71
2023-02-26T08:22:21.233Z,89.65
2023-02-26T08:23:26.707Z,89.81
2023-02-26T08:24:37.699Z,89.97
2023-02-26T08:25:40.542Z,89.98
2023-02-26T08:26:43.653Z,90.00
2023-02-26T08:27:46.513Z,89.85
2023-02-26T08:28:49.695Z,89.75
2023-02-26T08:29:52.942Z,89.68
2023-02-26T08:30:55.990Z,89.59
2023-02-26T08:31:59.014Z,89.48
2023-02-26T08:33:01.944Z,89.48
2023-02-26T08:34:04.962Z,89.57
2023-02-26T08:35:08.952Z,89.67
2023-02-26T08:36:12.619Z,89.49
2023-02-26T08:37:15.452Z,89.37
2023-02-26T08:38:18.332Z,89.51
2023-02-26T08:39:21.237Z,89.63
2023-02-26T08:40:24.141Z,89.60
2023-02-26T08:41:29.988Z,89.53
2023-02-26T08:42:32.866Z,89.36
2023-02-26T08:43:36.825Z,89.39
2023-02-26T08:44:39.670Z,89.53
2023-02-26T08:45:43.372Z,89.43
2023-02-26T08:46:46.258Z,89.35
2023-02-26T08:47:56.827Z,89.33
2023-02-26T08:49:00.240Z,89.33
2023-02-26T08:50:03.367Z,89.23
2023-02-26T08:51:06.611Z,89.33
2023-02-26T08:52:09.539Z,89.35
2023-02-26T08:53:12.690Z,89.28
2023-02-26T08:54:15.713Z,89.35
2023-02-26T08:55:18.658Z,89.35
2023-02-26T08:56:21.661Z,89.07
2023-02-26T08:57:24.540Z,89.04
2023-02-26T08:58:27.533Z,89.03
2023-02-26T08:59:30.393Z,88.83
2023-02-26T09:00:33.852Z,89.00
2023-02-26T09:01:36.872Z,88.85
2023-02-26T09:02:40.007Z,88.95
2023-02-26T09:03:42.938Z,89.03
2023-02-26T09:04:45.892Z,89.04
2023-02-26T09:05:48.717Z,89.15
2023-02-26T09:06:52.732Z,89.14
2023-02-26T09:07:55.596Z,89.25
2023-02-26T09:08:58.455Z,89.24
2023-02-26T09:10:01.376Z,89.33
2023-02-26T09:11:04.637Z,89.28
2023-02-26T09:12:07.636Z,89.19
2023-02-26T09:13:10.612Z,88.96
2023-02-26T09:14:14.332Z,88.85
2023-02-26T09:15:18.096Z,88.95
2023-02-26T09:16:21.600Z,88.82
2023-02-26T09:17:26.143Z,88.92
2023-02-26T09:18:29.373Z,89.09
2023-02-26T09:19:32.248Z,88.99
2023-02-26T09:20:35.208Z,89.05
2023-02-26T09:21:38.431Z,89.16
2023-02-26T09:22:42.233Z,88.97
2023-02-26T09:23:45.064Z,89.00
2023-02-26T09:24:47.972Z,88.94
2023-02-26T09:25:55.645Z,89.05
2023-02-26T09:26:58.623Z,89.07
2023-02-26T09:28:01.594Z,89.01
2023-02-26T09:29:04.990Z,88.89
2023-02-26T09:30:08.535Z,89.04
2023-02-26T09:31:11.628Z,88.99
2023-02-26T09:32:14.727Z,89.14
2023-02-26T09:33:17.671Z,89.16
2023-02-26T09:34:20.605Z,89.06
2023-02-26T09:35:23.479Z,89.04
2023-02-26T09:36:27.122Z,88.83
2023-02-26T09:37:30.248Z,88.76
2023-02-26T09:38:33.290Z,88.84
2023-02-26T09:39:36.996Z,88.75
2023-02-26T09:40:48.655Z,88.91
2023-02-26T09:41:55.159Z,89.02
2023-02-26T09:43:35.361Z,89.00
2023-02-26T09:44:39.193Z,88.88
2023-02-26T09:45:46.854Z,88.62
2023-02-26T09:46:59.080Z,88.63
2023-02-26T09:48:05.486Z,88.73
2023-02-26T09:49:28.607Z,88.71
2023-02-26T09:50:47.785Z,89.03
2023-02-26T09:52:26.130Z,88.95
2023-02-26T09:53:32.473Z,88.80
2023-02-26T09:54:47.323Z,88.83
2023-02-26T09:55:51.967Z,88.74
2023-02-26T09:56:58.396Z,88.77
2023-02-26T09:58:05.293Z,88.76
2023-02-26T09:59:10.608Z,88.76
2023-02-26T10:00:28.557Z,88.85
2023-02-26T10:01:59.707Z,88.85
2023-02-26T10:03:11.579Z,88.78
2023-02-26T10:04:21.208Z,88.62
2023-02-26T10:05:38.640Z,88.74
2023-02-26T10:06:55.274Z,88.59
2023-02-26T10:08:04.285Z,88.66
2023-02-26T10:09:10.337Z,88.75
2023-02-26T10:10:33.076Z,88.71
2023-02-26T10:11:58.150Z,88.83
2023-02-26T10:13:01.479Z,89.11
2023-02-26T10:14:15.310Z,89.08
2023-02-26T10:15:35.867Z,89.05
2023-02-26T10:16:43.098Z,89.04
2023-02-26T10:17:46.439Z,89.01
2023-02-26T10:19:13.830Z,88.89
2023-02-26T10:20:42.646Z,88.80
2023-02-26T10:22:43.835Z,88.79
2023-02-26T10:23:56.313Z,88.71
2023-02-26T10:25:06.574Z,88.75
2023-02-26T10:26:31.862Z,88.64
2023-02-26T10:27:40.715Z,88.66
2023-02-26T10:28:51.593Z,88.97
2023-02-26T10:30:10.510Z,88.82
2023-02-26T10:31:25.353Z,88.84
2023-02-26T10:32:37.525Z,88.88
2023-02-26T10:33:50.348Z,88.93
2023-02-26T10:34:57.962Z,88.95
2023-02-26T10:36:14.113Z,88.81
2023-02-26T10:37:22.448Z,88.62
2023-02-26T10:38:28.581Z,88.48
2023-02-26T10:39:53.460Z,88.52
2023-02-26T10:41:18.680Z,88.46
2023-02-26T10:42:26.492Z,88.66
2023-02-26T10:43:32.675Z,88.69
2023-02-26T10:44:48.146Z,88.81
2023-02-26T10:45:57.544Z,88.66
2023-02-26T10:47:12.475Z,88.76
2023-02-26T10:48:52.843Z,88.71
2023-02-26T10:50:03.072Z,88.50
2023-02-26T10:51:19.289Z,88.58
2023-02-26T10:52:26.822Z,88.60
2023-02-26T10:53:31.555Z,88.67
2023-02-26T10:54:37.563Z,88.71
2023-02-26T10:55:47.354Z,88.46
2023-02-26T10:56:50.129Z,88.33
2023-02-26T10:58:05.160Z,88.19
2023-02-26T10:59:08.350Z,88.44
2023-02-26T11:00:19.205Z,88.68
2023-02-26T11:01:26.329Z,88.53
2023-02-26T11:02:40.224Z,88.48
2023-02-26T11:03:46.341Z,88.29
2023-02-26T11:04:56.505Z,88.29
2023-02-26T11:06:10.444Z,88.07
2023-02-26T11:07:14.418Z,88.03
2023-02-26T11:08:27.323Z,87.78
2023-02-26T11:09:36.617Z,87.84
2023-02-26T11:10:50.752Z,87.48
2023-02-26T11:11:57.046Z,87.23
2023-02-26T11:13:00.511Z,87.40
2023-02-26T11:14:03.944Z,87.34
2023-02-26T11:15:07.305Z,87.18
2023-02-26T11:16:15.894Z,87.26
2023-02-26T11:17:28.068Z,87.38
2023-02-26T11:18:58.822Z,87.57
2023-02-26T11:20:18.617Z,87.41
2023-02-26T11:21:33.880Z,87.32
2023-02-26T11:22:37.994Z,87.16
2023-02-26T11:23:43.510Z,86.77
2023-02-26T11:24:48.862Z,86.59
2023-02-26T11:26:14.151Z,86.72
2023-02-26T11:27:21.557Z,86.40
2023-02-26T11:28:42.542Z,86.42
2023-02-26T11:29:49.554Z,86.31
2023-02-26T11:30:54.668Z,86.14
2023-02-26T11:32:01.506Z,86.13
2023-02-26T11:33:16.125Z,86.06
2023-02-26T11:34:24.116Z,86.01
2023-02-26T11:35:27.843Z,86.04
2023-02-26T11:36:33.669Z,86.23
2023-02-26T11:37:40.785Z,86.26
2023-02-26T11:38:55.822Z,86.09
2023-02-26T11:40:05.983Z,86.06
2023-02-26T11:41:09.316Z,86.08
2023-02-26T11:42:12.503Z,86.10
2023-02-26T11:43:19.307Z,86.39
2023-02-26T11:44:45.767Z,86.19
2023-02-26T11:45:57.552Z,86.29
2023-02-26T11:47:04.201Z,86.39
2023-02-26T11:48:13.046Z,86.05
2023-02-26T11:49:18.970Z,85.99
2023-02-26T11:50:23.280Z,86.08
2023-02-26T11:51:29.724Z,86.22
2023-02-26T11:52:41.590Z,86.26
2023-02-26T11:53:54.751Z,86.20
2023-02-26T11:55:02.692Z,86.10
2023-02-26T11:56:12.442Z,85.98
2023-02-26T11:57:26.038Z,86.11
2023-02-26T11:58:34.612Z,85.75
2023-02-26T11:59:40.247Z,85.73
2023-02-26T12:00:43.602Z,85.93
2023-02-26T12:01:47.539Z,85.95
2023-02-26T12:02:50.766Z,86.14
2023-02-26T12:03:59.443Z,86.33
2023-02-26T12:05:06.321Z,86.26
2023-02-26T12:06:27.459Z,86.24
2023-02-26T12:07:30.537Z,86.23
2023-02-26T12:08:38.958Z,86.30
2023-02-26T12:09:42.673Z,86.19
2023-02-26T12:11:15.127Z,86.25
2023-02-26T12:12:43.625Z,86.06
2023-02-26T12:14:06.030Z,85.99
2023-02-26T12:15:23.199Z,86.09
2023-02-26T12:16:34.530Z,86.11
2023-02-26T12:18:16.965Z,86.08
2023-02-26T12:19:39.439Z,86.24
2023-02-26T12:21:02.921Z,86.38
2023-02-26T12:22:08.416Z,86.40
2023-02-26T12:23:31.320Z,86.36
2023-02-26T12:24:36.806Z,86.32
2023-02-26T12:25:50.592Z,86.24
2023-02-26T12:26:57.635Z,86.23
2023-02-26T12:28:19.453Z,86.29
2023-02-26T12:29:47.829Z,85.98
2023-02-26T12:31:03.705Z,86.10
2023-02-26T12:32:26.513Z,86.13
2023-02-26T12:33:34.275Z,85.92
2023-02-26T12:34:56.545Z,85.89
2023-02-26T12:36:10.030Z,85.72
2023-02-26T12:37:49.416Z,85.96
2023-02-26T12:39:18.168Z,86.22
2023-02-26T12:41:08.551Z,86.00
2023-02-26T12:42:33.462Z,85.78
2023-02-26T12:43:50.015Z,85.82
2023-02-26T12:45:16.615Z,85.81
2023-02-26T12:46:34.269Z,85.90
2023-02-26T12:48:08.430Z,85.79
2023-02-26T12:49:39.376Z,85.47
2023-02-26T12:50:51.971Z,85.36
2023-02-26T12:52:02.085Z,85.33
2023-02-26T12:53:29.643Z,85.38
2023-02-26T12:55:04.449Z,85.49
2023-02-26T12:56:40.131Z,85.32
2023-02-26T12:58:07.990Z,85.26
2023-02-26T12:59:19.983Z,85.17
2023-02-26T13:00:26.120Z,85.31
2023-02-26T13:01:47.131Z,85.50
2023-02-26T13:03:15.532Z,85.46
2023-02-26T13:04:24.448Z,85.35
2023-02-26T13:05:35.260Z,85.31
2023-02-26T13:07:10.398Z,85.23
2023-02-26T13:08:36.878Z,84.99
2023-02-26T13:09:55.789Z,85.03
2023-02-26T13:11:04.623Z,85.02
2023-02-26T13:12:38.241Z,85.27
2023-02-26T13:13:43.792Z,85.29
2023-02-26T13:14:53.922Z,85.12
2023-02-26T13:16:10.983Z,85.09
2023-02-26T13:17:39.384Z,85.05
2023-02-26T13:19:30.162Z,85.17
2023-02-26T13:20:37.525Z,84.90
2023-02-26T13:21:48.999Z,84.82
2023-02-26T13:23:10.421Z,84.85
2023-02-26T13:24:25.380Z,84.91
2023-02-26T13:25:38.372Z,84.37
2023-02-26T13:26:42.833Z,84.50
2023-02-26T13:27:47.681Z,84.74
2023-02-26T13:28:59.182Z,84.84
2023-02-26T13:30:20.144Z,84.77
2023-02-26T13:31:38.872Z,84.60
2023-02-26T13:32:44.384Z,84.72
2023-02-26T13:33:50.769Z,84.78
2023-02-26T13:35:01.085Z,84.61
2023-02-26T13:36:07.049Z,84.36
2023-02-26T13:37:38.168Z,84.48
2023-02-26T13:38:53.638Z,84.17
2023-02-26T13:40:46.689Z,84.36
2023-02-26T13:42:05.623Z,84.34
2023-02-26T13:43:18.991Z,84.45
2023-02-26T13:44:33.980Z,84.42
2023-02-26T13:45:55.384Z,84.33
2023-02-26T13:47:07.096Z,84.52
2023-02-26T13:48:31.678Z,84.42
2023-02-26T13:49:50.836Z,84.29
2023-02-26T13:51:05.662Z,84.27
2023-02-26T13:52:26.852Z,84.34
2023-02-26T13:53:41.552Z,84.42
2023-02-26T13:54:46.479Z,84.31
2023-02-26T13:55:51.743Z,84.38
2023-02-26T13:57:36.752Z,84.25
2023-02-26T13:58:42.705Z,84.31
2023-02-26T13:59:52.135Z,84.52
2023-02-26T14:01:08.773Z,84.73
2023-02-26T14:02:20.647Z,84.64
2023-02-26T14:03:26.509Z,84.64
2023-02-26T14:04:33.021Z,84.40
2023-02-26T14:05:53.920Z,84.47
2023-02-26T14:07:15.442Z,84.49
2023-02-26T14:08:18.922Z,84.83
2023-02-26T14:09:21.770Z,84.57
2023-02-26T14:10:26.554Z,84.59
2023-02-26T14:11:32.430Z,84.38
2023-02-26T14:12:42.536Z,84.50
2023-02-26T14:14:13.669Z,84.43
2023-02-26T14:15:28.833Z,84.46
2023-02-26T14:16:35.001Z,84.48
2023-02-26T14:17:39.742Z,84.53
2023-02-26T14:18:50.809Z,84.28
2023-02-26T14:19:53.633Z,84.13
2023-02-26T14:21:25.782Z,84.21
2023-02-26T14:22:31.901Z,84.06
2023-02-26T14:23:37.359Z,84.10
2023-02-26T14:24:52.224Z,83.80
2023-02-26T14:26:03.367Z,83.92
2023-02-26T14:27:34.241Z,83.72
2023-02-26T14:28:56.033Z,83.74
2023-02-26T14:30:09.579Z,83.86
2023-02-26T14:31:12.557Z,84.10
2023-02-26T14:32:28.354Z,84.00
2023-02-26T14:33:37.978Z,84.15
2023-02-26T14:34:51.124Z,84.02
2023-02-26T14:35:54.695Z,84.08
2023-02-26T14:37:07.174Z,83.90
2023-02-26T14:38:24.143Z,83.91
2023-02-26T14:39:35.082Z,83.87
2023-02-26T14:40:48.023Z,83.89
2023-02-26T14:41:57.552Z,84.00
2023-02-26T14:43:03.735Z,84.19
2023-02-26T14:44:22.181Z,84.18
2023-02-26T14:45:28.589Z,84.34
2023-02-26T14:46:31.712Z,84.36
2023-02-26T14:47:35.026Z,84.24
2023-02-26T14:48:39.787Z,84.27
2023-02-26T14:49:49.582Z,84.27
2023-02-26T14:50:52.451Z,84.23
2023-02-26T14:52:32.092Z,84.04
2023-02-26T14:53:46.507Z,83.97
2023-02-26T14:55:09.507Z,84.04
2023-02-26T14:56:35.176Z,84.08
2023-02-26T14:58:10.914Z,84.09
2023-02-26T14:59:32.001Z,84.28
2023-02-26T15:01:31.994Z,84.25